sensor_id;sensor_type;location;lat;lon;timestamp;P1;durP1;ratioP1;P2;durP2;ratioP2
15451;SDS011;7827;53.594;9.938;2023-07-31T00:00:03;0.60;;;0.60;;
15451;SDS011;7827;53.594;9.938;2023-07-31T00:02:36;0.60;;;0.60;;
15451;SDS011;7827;53.594;9.938;2023-07-31T00:05:04;0.60;;;0.60;;
15451;SDS011;7827;53.594;9.938;2023-07-31T00:07:35;0.60;;;0.60;;
15451;SDS011;7827;53.594;9.938;2023-07-31T00:10:04;0.60;;;0.60;;
15451;SDS011;7827;53.594;9.938;2023-07-31T00:12:35;0.60;;;0.60;;
15451;SDS011;7827;53.594;9.938;2023-07-31T00:15:04;0.60;;;0.60;;
15451;SDS011;7827;53.594;9.938;2023-07-31T00:17:33;0.52;;;0.52;;
15451;SDS011;7827;53.594;9.938;2023-07-31T00:20:01;0.60;;;0.60;;
15451;SDS011;7827;53.594;9.938;2023-07-31T00:22:32;0.60;;;0.60;;
15451;SDS011;7827;53.594;9.938;2023-07-31T00:25:00;0.60;;;0.60;;
15451;SDS011;7827;53.594;9.938;2023-07-31T00:27:29;0.60;;;0.60;;
15451;SDS011;7827;53.594;9.938;2023-07-31T00:29:58;0.60;;;0.60;;
15451;SDS011;7827;53.594;9.938;2023-07-31T00:32:27;0.60;;;0.60;;
15451;SDS011;7827;53.594;9.938;2023-07-31T00:34:56;0.60;;;0.60;;
15451;SDS011;7827;53.594;9.938;2023-07-31T00:37:24;0.60;;;0.60;;
15451;SDS011;7827;53.594;9.938;2023-07-31T00:39:52;0.60;;;0.60;;
15451;SDS011;7827;53.594;9.938;2023-07-31T00:42:21;0.60;;;0.60;;
15451;SDS011;7827;53.594;9.938;2023-07-31T00:44:49;0.60;;;0.60;;
15451;SDS011;7827;53.594;9.938;2023-07-31T00:47:19;0.60;;;0.60;;
15451;SDS011;7827;53.594;9.938;2023-07-31T00:49:48;0.60;;;0.60;;
15451;SDS011;7827;53.594;9.938;2023-07-31T00:52:17;0.60;;;0.60;;
15451;SDS011;7827;53.594;9.938;2023-07-31T00:54:47;0.60;;;0.60;;
15451;SDS011;7827;53.594;9.938;2023-07-31T00:57:16;0.50;;;0.50;;
15451;SDS011;7827;53.594;9.938;2023-07-31T00:59:45;0.60;;;0.60;;
15451;SDS011;7827;53.594;9.938;2023-07-31T01:02:14;0.60;;;0.60;;
15451;SDS011;7827;53.594;9.938;2023-07-31T01:04:44;0.60;;;0.60;;
15451;SDS011;7827;53.594;9.938;2023-07-31T01:07:14;0.60;;;0.60;;
15451;SDS011;7827;53.594;9.938;2023-07-31T01:09:56;0.50;;;0.50;;
15451;SDS011;7827;53.594;9.938;2023-07-31T01:12:35;0.60;;;0.60;;
15451;SDS011;7827;53.594;9.938;2023-07-31T01:15:06;0.57;;;0.57;;
15451;SDS011;7827;53.594;9.938;2023-07-31T01:17:38;0.60;;;0.60;;
15451;SDS011;7827;53.594;9.938;2023-07-31T01:20:10;0.60;;;0.60;;
15451;SDS011;7827;53.594;9.938;2023-07-31T01:22:52;0.60;;;0.60;;
15451;SDS011;7827;53.594;9.938;2023-07-31T01:25:54;0.60;;;0.60;;
15451;SDS011;7827;53.594;9.938;2023-07-31T01:28:33;0.60;;;0.60;;
15451;SDS011;7827;53.594;9.938;2023-07-31T01:31:18;0.60;;;0.60;;
15451;SDS011;7827;53.594;9.938;2023-07-31T01:33:50;0.70;;;0.70;;
15451;SDS011;7827;53.594;9.938;2023-07-31T01:36:23;0.60;;;0.60;;
15451;SDS011;7827;53.594;9.938;2023-07-31T01:38:52;0.70;;;0.70;;
15451;SDS011;7827;53.594;9.938;2023-07-31T01:41:28;0.60;;;0.60;;
15451;SDS011;7827;53.594;9.938;2023-07-31T01:43:56;0.60;;;0.60;;
15451;SDS011;7827;53.594;9.938;2023-07-31T01:46:25;0.60;;;0.60;;
15451;SDS011;7827;53.594;9.938;2023-07-31T01:48:53;0.60;;;0.60;;
15451;SDS011;7827;53.594;9.938;2023-07-31T01:51:23;0.60;;;0.60;;
15451;SDS011;7827;53.594;9.938;2023-07-31T01:53:51;0.60;;;0.60;;
15451;SDS011;7827;53.594;9.938;2023-07-31T01:56:19;0.60;;;0.60;;
15451;SDS011;7827;53.594;9.938;2023-07-31T01:58:49;0.60;;;0.60;;
15451;SDS011;7827;53.594;9.938;2023-07-31T02:01:17;0.60;;;0.60;;
15451;SDS011;7827;53.594;9.938;2023-07-31T02:03:46;0.60;;;0.60;;
15451;SDS011;7827;53.594;9.938;2023-07-31T02:06:14;0.60;;;0.60;;
15451;SDS011;7827;53.594;9.938;2023-07-31T02:08:43;0.60;;;0.60;;
15451;SDS011;7827;53.594;9.938;2023-07-31T02:11:12;0.60;;;0.60;;
15451;SDS011;7827;53.594;9.938;2023-07-31T02:13:40;0.60;;;0.60;;
15451;SDS011;7827;53.594;9.938;2023-07-31T02:16:10;0.60;;;0.60;;
15451;SDS011;7827;53.594;9.938;2023-07-31T02:18:38;0.60;;;0.60;;
15451;SDS011;7827;53.594;9.938;2023-07-31T02:21:07;0.60;;;0.60;;
15451;SDS011;7827;53.594;9.938;2023-07-31T02:23:35;0.60;;;0.60;;
15451;SDS011;7827;53.594;9.938;2023-07-31T02:26:04;0.60;;;0.60;;
15451;SDS011;7827;53.594;9.938;2023-07-31T02:28:33;0.60;;;0.60;;
15451;SDS011;7827;53.594;9.938;2023-07-31T02:31:01;0.55;;;0.55;;
15451;SDS011;7827;53.594;9.938;2023-07-31T02:33:31;0.60;;;0.60;;
15451;SDS011;7827;53.594;9.938;2023-07-31T02:35:59;0.60;;;0.60;;
15451;SDS011;7827;53.594;9.938;2023-07-31T02:38:28;0.52;;;0.52;;
15451;SDS011;7827;53.594;9.938;2023-07-31T02:40:56;0.60;;;0.60;;
15451;SDS011;7827;53.594;9.938;2023-07-31T02:43:26;0.60;;;0.60;;
15451;SDS011;7827;53.594;9.938;2023-07-31T02:45:54;0.60;;;0.60;;
15451;SDS011;7827;53.594;9.938;2023-07-31T02:48:23;0.60;;;0.60;;
15451;SDS011;7827;53.594;9.938;2023-07-31T02:50:53;0.60;;;0.60;;
15451;SDS011;7827;53.594;9.938;2023-07-31T02:53:21;0.60;;;0.60;;
15451;SDS011;7827;53.594;9.938;2023-07-31T02:55:49;0.55;;;0.55;;
15451;SDS011;7827;53.594;9.938;2023-07-31T02:58:18;0.70;;;0.70;;
15451;SDS011;7827;53.594;9.938;2023-07-31T03:00:46;0.60;;;0.60;;
15451;SDS011;7827;53.594;9.938;2023-07-31T03:03:14;0.60;;;0.60;;
15451;SDS011;7827;53.594;9.938;2023-07-31T03:05:43;0.55;;;0.55;;
15451;SDS011;7827;53.594;9.938;2023-07-31T03:08:13;0.60;;;0.60;;
15451;SDS011;7827;53.594;9.938;2023-07-31T03:10:41;0.60;;;0.60;;
15451;SDS011;7827;53.594;9.938;2023-07-31T03:13:09;0.60;;;0.60;;
15451;SDS011;7827;53.594;9.938;2023-07-31T03:15:38;0.60;;;0.60;;
15451;SDS011;7827;53.594;9.938;2023-07-31T03:18:09;0.60;;;0.60;;
15451;SDS011;7827;53.594;9.938;2023-07-31T03:20:41;0.60;;;0.60;;
15451;SDS011;7827;53.594;9.938;2023-07-31T03:23:10;0.60;;;0.60;;
15451;SDS011;7827;53.594;9.938;2023-07-31T03:25:41;0.60;;;0.60;;
15451;SDS011;7827;53.594;9.938;2023-07-31T03:28:27;0.60;;;0.60;;
15451;SDS011;7827;53.594;9.938;2023-07-31T03:30:55;0.68;;;0.68;;
15451;SDS011;7827;53.594;9.938;2023-07-31T03:33:24;0.60;;;0.60;;
15451;SDS011;7827;53.594;9.938;2023-07-31T03:35:52;0.55;;;0.55;;
15451;SDS011;7827;53.594;9.938;2023-07-31T03:38:22;0.60;;;0.60;;
15451;SDS011;7827;53.594;9.938;2023-07-31T03:40:52;0.60;;;0.60;;
15451;SDS011;7827;53.594;9.938;2023-07-31T03:43:21;0.60;;;0.60;;
15451;SDS011;7827;53.594;9.938;2023-07-31T03:45:49;0.60;;;0.60;;
15451;SDS011;7827;53.594;9.938;2023-07-31T03:48:17;0.60;;;0.60;;
15451;SDS011;7827;53.594;9.938;2023-07-31T03:50:46;0.60;;;0.60;;
15451;SDS011;7827;53.594;9.938;2023-07-31T03:53:15;0.60;;;0.60;;
15451;SDS011;7827;53.594;9.938;2023-07-31T03:55:45;0.60;;;0.60;;
15451;SDS011;7827;53.594;9.938;2023-07-31T03:58:13;0.60;;;0.60;;
15451;SDS011;7827;53.594;9.938;2023-07-31T04:00:42;0.60;;;0.60;;
15451;SDS011;7827;53.594;9.938;2023-07-31T04:03:10;0.60;;;0.60;;
15451;SDS011;7827;53.594;9.938;2023-07-31T04:05:39;0.52;;;0.52;;
15451;SDS011;7827;53.594;9.938;2023-07-31T04:08:07;0.60;;;0.60;;
15451;SDS011;7827;53.594;9.938;2023-07-31T04:10:35;0.52;;;0.52;;
15451;SDS011;7827;53.594;9.938;2023-07-31T04:13:05;0.60;;;0.60;;
15451;SDS011;7827;53.594;9.938;2023-07-31T04:15:33;0.60;;;0.60;;
15451;SDS011;7827;53.594;9.938;2023-07-31T04:18:02;0.60;;;0.60;;
15451;SDS011;7827;53.594;9.938;2023-07-31T04:20:30;0.60;;;0.60;;
15451;SDS011;7827;53.594;9.938;2023-07-31T04:22:58;0.60;;;0.60;;
15451;SDS011;7827;53.594;9.938;2023-07-31T04:25:27;0.60;;;0.60;;
15451;SDS011;7827;53.594;9.938;2023-07-31T04:27:55;0.60;;;0.60;;
15451;SDS011;7827;53.594;9.938;2023-07-31T04:30:26;0.60;;;0.60;;
15451;SDS011;7827;53.594;9.938;2023-07-31T04:32:54;0.60;;;0.60;;
15451;SDS011;7827;53.594;9.938;2023-07-31T04:35:23;0.50;;;0.50;;
15451;SDS011;7827;53.594;9.938;2023-07-31T04:37:51;0.60;;;0.60;;
15451;SDS011;7827;53.594;9.938;2023-07-31T04:40:20;0.60;;;0.60;;
15451;SDS011;7827;53.594;9.938;2023-07-31T04:42:49;0.60;;;0.60;;
15451;SDS011;7827;53.594;9.938;2023-07-31T04:45:17;0.57;;;0.57;;
15451;SDS011;7827;53.594;9.938;2023-07-31T04:47:47;0.60;;;0.60;;
15451;SDS011;7827;53.594;9.938;2023-07-31T04:50:15;0.60;;;0.60;;
15451;SDS011;7827;53.594;9.938;2023-07-31T04:52:44;0.55;;;0.55;;
15451;SDS011;7827;53.594;9.938;2023-07-31T04:55:12;0.60;;;0.60;;
15451;SDS011;7827;53.594;9.938;2023-07-31T04:57:40;0.60;;;0.60;;
15451;SDS011;7827;53.594;9.938;2023-07-31T05:00:09;0.60;;;0.60;;
15451;SDS011;7827;53.594;9.938;2023-07-31T05:02:38;0.60;;;0.60;;
15451;SDS011;7827;53.594;9.938;2023-07-31T05:05:08;0.60;;;0.60;;
15451;SDS011;7827;53.594;9.938;2023-07-31T05:07:37;0.60;;;0.60;;
15451;SDS011;7827;53.594;9.938;2023-07-31T05:10:05;0.50;;;0.50;;
15451;SDS011;7827;53.594;9.938;2023-07-31T05:12:34;0.60;;;0.60;;
15451;SDS011;7827;53.594;9.938;2023-07-31T05:15:03;0.60;;;0.60;;
15451;SDS011;7827;53.594;9.938;2023-07-31T05:17:33;0.60;;;0.60;;
15451;SDS011;7827;53.594;9.938;2023-07-31T05:20:01;0.50;;;0.50;;
15451;SDS011;7827;53.594;9.938;2023-07-31T05:22:31;0.60;;;0.60;;
15451;SDS011;7827;53.594;9.938;2023-07-31T05:25:00;0.60;;;0.60;;
15451;SDS011;7827;53.594;9.938;2023-07-31T05:27:28;0.60;;;0.60;;
15451;SDS011;7827;53.594;9.938;2023-07-31T05:29:56;0.60;;;0.60;;
15451;SDS011;7827;53.594;9.938;2023-07-31T05:32:25;0.60;;;0.60;;
15451;SDS011;7827;53.594;9.938;2023-07-31T05:34:53;0.52;;;0.52;;
15451;SDS011;7827;53.594;9.938;2023-07-31T05:37:21;0.60;;;0.60;;
15451;SDS011;7827;53.594;9.938;2023-07-31T05:39:51;0.50;;;0.50;;
15451;SDS011;7827;53.594;9.938;2023-07-31T05:42:20;0.60;;;0.60;;
15451;SDS011;7827;53.594;9.938;2023-07-31T05:44:48;0.60;;;0.60;;
15451;SDS011;7827;53.594;9.938;2023-07-31T05:47:17;0.60;;;0.60;;
15451;SDS011;7827;53.594;9.938;2023-07-31T05:49:45;0.50;;;0.50;;
15451;SDS011;7827;53.594;9.938;2023-07-31T05:52:13;0.60;;;0.60;;
15451;SDS011;7827;53.594;9.938;2023-07-31T05:54:42;0.60;;;0.60;;
15451;SDS011;7827;53.594;9.938;2023-07-31T05:57:11;0.60;;;0.60;;
15451;SDS011;7827;53.594;9.938;2023-07-31T05:59:40;0.60;;;0.60;;
15451;SDS011;7827;53.594;9.938;2023-07-31T06:02:08;0.60;;;0.60;;
15451;SDS011;7827;53.594;9.938;2023-07-31T06:04:36;0.60;;;0.60;;
15451;SDS011;7827;53.594;9.938;2023-07-31T06:07:05;0.52;;;0.52;;
15451;SDS011;7827;53.594;9.938;2023-07-31T06:09:33;0.57;;;0.57;;
15451;SDS011;7827;53.594;9.938;2023-07-31T06:12:02;0.52;;;0.52;;
15451;SDS011;7827;53.594;9.938;2023-07-31T06:14:32;0.60;;;0.60;;
15451;SDS011;7827;53.594;9.938;2023-07-31T06:17:00;0.57;;;0.57;;
15451;SDS011;7827;53.594;9.938;2023-07-31T06:19:29;0.60;;;0.60;;
15451;SDS011;7827;53.594;9.938;2023-07-31T06:21:57;0.60;;;0.60;;
15451;SDS011;7827;53.594;9.938;2023-07-31T06:24:26;0.60;;;0.60;;
15451;SDS011;7827;53.594;9.938;2023-07-31T06:26:56;0.60;;;0.60;;
15451;SDS011;7827;53.594;9.938;2023-07-31T06:29:25;0.55;;;0.55;;
15451;SDS011;7827;53.594;9.938;2023-07-31T06:31:54;0.60;;;0.60;;
15451;SDS011;7827;53.594;9.938;2023-07-31T06:34:23;0.50;;;0.50;;
15451;SDS011;7827;53.594;9.938;2023-07-31T06:36:51;0.50;;;0.50;;
15451;SDS011;7827;53.594;9.938;2023-07-31T06:39:19;0.50;;;0.50;;
15451;SDS011;7827;53.594;9.938;2023-07-31T06:41:48;0.50;;;0.50;;
15451;SDS011;7827;53.594;9.938;2023-07-31T06:44:17;0.60;;;0.60;;
15451;SDS011;7827;53.594;9.938;2023-07-31T06:46:45;0.60;;;0.60;;
15451;SDS011;7827;53.594;9.938;2023-07-31T06:49:15;0.60;;;0.60;;
15451;SDS011;7827;53.594;9.938;2023-07-31T06:51:43;0.60;;;0.60;;
15451;SDS011;7827;53.594;9.938;2023-07-31T06:54:11;0.60;;;0.60;;
15451;SDS011;7827;53.594;9.938;2023-07-31T06:56:40;0.50;;;0.50;;
15451;SDS011;7827;53.594;9.938;2023-07-31T06:59:08;0.50;;;0.50;;
15451;SDS011;7827;53.594;9.938;2023-07-31T07:01:37;0.50;;;0.50;;
15451;SDS011;7827;53.594;9.938;2023-07-31T07:04:05;0.55;;;0.55;;
15451;SDS011;7827;53.594;9.938;2023-07-31T07:06:35;0.50;;;0.50;;
15451;SDS011;7827;53.594;9.938;2023-07-31T07:09:04;0.60;;;0.60;;
15451;SDS011;7827;53.594;9.938;2023-07-31T07:11:32;0.60;;;0.60;;
15451;SDS011;7827;53.594;9.938;2023-07-31T07:14:01;0.55;;;0.55;;
15451;SDS011;7827;53.594;9.938;2023-07-31T07:16:29;0.50;;;0.50;;
15451;SDS011;7827;53.594;9.938;2023-07-31T07:18:57;0.50;;;0.50;;
15451;SDS011;7827;53.594;9.938;2023-07-31T07:21:30;0.50;;;0.50;;
15451;SDS011;7827;53.594;9.938;2023-07-31T07:24:00;0.50;;;0.50;;
15451;SDS011;7827;53.594;9.938;2023-07-31T07:26:28;0.50;;;0.50;;
15451;SDS011;7827;53.594;9.938;2023-07-31T07:28:57;0.50;;;0.50;;
15451;SDS011;7827;53.594;9.938;2023-07-31T07:31:27;0.50;;;0.50;;
15451;SDS011;7827;53.594;9.938;2023-07-31T07:33:56;0.50;;;0.50;;
15451;SDS011;7827;53.594;9.938;2023-07-31T07:36:24;0.50;;;0.50;;
15451;SDS011;7827;53.594;9.938;2023-07-31T07:38:55;0.50;;;0.50;;
15451;SDS011;7827;53.594;9.938;2023-07-31T07:41:25;0.50;;;0.50;;
15451;SDS011;7827;53.594;9.938;2023-07-31T07:43:53;0.50;;;0.50;;
15451;SDS011;7827;53.594;9.938;2023-07-31T07:46:22;0.50;;;0.50;;
15451;SDS011;7827;53.594;9.938;2023-07-31T07:48:50;0.50;;;0.50;;
15451;SDS011;7827;53.594;9.938;2023-07-31T07:51:19;0.45;;;0.45;;
15451;SDS011;7827;53.594;9.938;2023-07-31T07:53:47;0.52;;;0.52;;
15451;SDS011;7827;53.594;9.938;2023-07-31T07:56:15;0.50;;;0.50;;
15451;SDS011;7827;53.594;9.938;2023-07-31T07:58:45;0.50;;;0.50;;
15451;SDS011;7827;53.594;9.938;2023-07-31T08:01:16;0.60;;;0.60;;
15451;SDS011;7827;53.594;9.938;2023-07-31T08:03:45;0.50;;;0.50;;
15451;SDS011;7827;53.594;9.938;2023-07-31T08:06:14;0.50;;;0.50;;
15451;SDS011;7827;53.594;9.938;2023-07-31T08:08:42;0.50;;;0.50;;
15451;SDS011;7827;53.594;9.938;2023-07-31T08:11:10;0.45;;;0.45;;
15451;SDS011;7827;53.594;9.938;2023-07-31T08:13:39;0.50;;;0.50;;
15451;SDS011;7827;53.594;9.938;2023-07-31T08:16:09;0.50;;;0.50;;
15451;SDS011;7827;53.594;9.938;2023-07-31T08:18:37;0.60;;;0.60;;
15451;SDS011;7827;53.594;9.938;2023-07-31T08:21:07;0.50;;;0.50;;
15451;SDS011;7827;53.594;9.938;2023-07-31T08:23:36;0.50;;;0.50;;
15451;SDS011;7827;53.594;9.938;2023-07-31T08:26:04;0.50;;;0.50;;
15451;SDS011;7827;53.594;9.938;2023-07-31T08:28:32;0.50;;;0.50;;
15451;SDS011;7827;53.594;9.938;2023-07-31T08:31:01;0.50;;;0.50;;
15451;SDS011;7827;53.594;9.938;2023-07-31T08:33:31;0.50;;;0.50;;
15451;SDS011;7827;53.594;9.938;2023-07-31T08:35:59;0.50;;;0.50;;
15451;SDS011;7827;53.594;9.938;2023-07-31T08:38:28;0.50;;;0.50;;
15451;SDS011;7827;53.594;9.938;2023-07-31T08:40:57;0.50;;;0.50;;
15451;SDS011;7827;53.594;9.938;2023-07-31T08:43:26;0.40;;;0.40;;
15451;SDS011;7827;53.594;9.938;2023-07-31T08:45:55;0.50;;;0.50;;
15451;SDS011;7827;53.594;9.938;2023-07-31T08:48:24;0.50;;;0.50;;
15451;SDS011;7827;53.594;9.938;2023-07-31T08:50:54;0.50;;;0.50;;
15451;SDS011;7827;53.594;9.938;2023-07-31T08:53:23;0.50;;;0.50;;
15451;SDS011;7827;53.594;9.938;2023-07-31T08:55:52;0.50;;;0.50;;
15451;SDS011;7827;53.594;9.938;2023-07-31T08:58:21;0.50;;;0.50;;
15451;SDS011;7827;53.594;9.938;2023-07-31T09:00:51;0.50;;;0.50;;
15451;SDS011;7827;53.594;9.938;2023-07-31T09:03:23;0.50;;;0.50;;
15451;SDS011;7827;53.594;9.938;2023-07-31T09:05:55;0.40;;;0.40;;
15451;SDS011;7827;53.594;9.938;2023-07-31T09:08:26;0.50;;;0.50;;
15451;SDS011;7827;53.594;9.938;2023-07-31T09:10:59;0.40;;;0.40;;
15451;SDS011;7827;53.594;9.938;2023-07-31T09:13:30;0.40;;;0.40;;
15451;SDS011;7827;53.594;9.938;2023-07-31T09:15:59;0.47;;;0.47;;
15451;SDS011;7827;53.594;9.938;2023-07-31T09:18:27;0.50;;;0.50;;
15451;SDS011;7827;53.594;9.938;2023-07-31T09:21:03;0.50;;;0.50;;
15451;SDS011;7827;53.594;9.938;2023-07-31T09:23:40;0.47;;;0.47;;
15451;SDS011;7827;53.594;9.938;2023-07-31T09:26:10;0.50;;;0.50;;
15451;SDS011;7827;53.594;9.938;2023-07-31T09:28:39;0.50;;;0.50;;
15451;SDS011;7827;53.594;9.938;2023-07-31T09:31:07;0.50;;;0.50;;
15451;SDS011;7827;53.594;9.938;2023-07-31T09:33:36;0.50;;;0.50;;
15451;SDS011;7827;53.594;9.938;2023-07-31T09:36:29;0.40;;;0.40;;
15451;SDS011;7827;53.594;9.938;2023-07-31T09:39:01;0.45;;;0.45;;
15451;SDS011;7827;53.594;9.938;2023-07-31T09:41:30;0.50;;;0.50;;
15451;SDS011;7827;53.594;9.938;2023-07-31T09:44:03;0.50;;;0.50;;
15451;SDS011;7827;53.594;9.938;2023-07-31T09:46:32;0.50;;;0.50;;
15451;SDS011;7827;53.594;9.938;2023-07-31T09:49:07;0.50;;;0.50;;
15451;SDS011;7827;53.594;9.938;2023-07-31T09:51:38;0.40;;;0.40;;
15451;SDS011;7827;53.594;9.938;2023-07-31T09:54:09;0.50;;;0.50;;
15451;SDS011;7827;53.594;9.938;2023-07-31T09:56:41;0.50;;;0.50;;
15451;SDS011;7827;53.594;9.938;2023-07-31T09:59:12;0.57;;;0.57;;
15451;SDS011;7827;53.594;9.938;2023-07-31T10:01:44;0.40;;;0.40;;
15451;SDS011;7827;53.594;9.938;2023-07-31T10:04:14;0.40;;;0.40;;
15451;SDS011;7827;53.594;9.938;2023-07-31T10:06:53;0.40;;;0.40;;
15451;SDS011;7827;53.594;9.938;2023-07-31T10:09:23;0.50;;;0.50;;
15451;SDS011;7827;53.594;9.938;2023-07-31T10:11:59;0.50;;;0.50;;
15451;SDS011;7827;53.594;9.938;2023-07-31T10:14:31;0.50;;;0.50;;
15451;SDS011;7827;53.594;9.938;2023-07-31T10:17:00;0.50;;;0.50;;
15451;SDS011;7827;53.594;9.938;2023-07-31T10:19:30;0.52;;;0.52;;
15451;SDS011;7827;53.594;9.938;2023-07-31T10:22:00;0.57;;;0.57;;
15451;SDS011;7827;53.594;9.938;2023-07-31T10:24:32;0.50;;;0.50;;
15451;SDS011;7827;53.594;9.938;2023-07-31T10:27:02;0.50;;;0.50;;
15451;SDS011;7827;53.594;9.938;2023-07-31T10:29:31;0.50;;;0.50;;
15451;SDS011;7827;53.594;9.938;2023-07-31T10:32:00;0.50;;;0.50;;
15451;SDS011;7827;53.594;9.938;2023-07-31T10:34:32;0.50;;;0.50;;
15451;SDS011;7827;53.594;9.938;2023-07-31T10:39:56;0.50;;;0.50;;
15451;SDS011;7827;53.594;9.938;2023-07-31T10:42:28;0.50;;;0.50;;
15451;SDS011;7827;53.594;9.938;2023-07-31T10:45:02;0.50;;;0.50;;
15451;SDS011;7827;53.594;9.938;2023-07-31T10:47:36;0.50;;;0.50;;
15451;SDS011;7827;53.594;9.938;2023-07-31T10:50:19;0.50;;;0.50;;
15451;SDS011;7827;53.594;9.938;2023-07-31T10:52:52;0.50;;;0.50;;
15451;SDS011;7827;53.594;9.938;2023-07-31T10:55:30;0.50;;;0.50;;
15451;SDS011;7827;53.594;9.938;2023-07-31T10:58:06;0.50;;;0.50;;
15451;SDS011;7827;53.594;9.938;2023-07-31T11:00:37;0.50;;;0.50;;
15451;SDS011;7827;53.594;9.938;2023-07-31T11:03:07;0.50;;;0.50;;
15451;SDS011;7827;53.594;9.938;2023-07-31T11:05:45;0.50;;;0.50;;
15451;SDS011;7827;53.594;9.938;2023-07-31T11:08:19;0.60;;;0.60;;
15451;SDS011;7827;53.594;9.938;2023-07-31T11:10:50;0.50;;;0.50;;
15451;SDS011;7827;53.594;9.938;2023-07-31T11:13:39;0.50;;;0.50;;
15451;SDS011;7827;53.594;9.938;2023-07-31T11:16:11;0.60;;;0.60;;
15451;SDS011;7827;53.594;9.938;2023-07-31T11:18:41;0.60;;;0.60;;
15451;SDS011;7827;53.594;9.938;2023-07-31T11:21:12;0.60;;;0.60;;
15451;SDS011;7827;53.594;9.938;2023-07-31T11:23:45;0.50;;;0.50;;
15451;SDS011;7827;53.594;9.938;2023-07-31T11:26:14;0.60;;;0.60;;
15451;SDS011;7827;53.594;9.938;2023-07-31T11:28:46;0.50;;;0.50;;
15451;SDS011;7827;53.594;9.938;2023-07-31T11:31:15;0.52;;;0.52;;
15451;SDS011;7827;53.594;9.938;2023-07-31T11:33:45;0.60;;;0.60;;
15451;SDS011;7827;53.594;9.938;2023-07-31T11:36:14;0.50;;;0.50;;
15451;SDS011;7827;53.594;9.938;2023-07-31T11:38:44;0.60;;;0.60;;
15451;SDS011;7827;53.594;9.938;2023-07-31T11:41:14;0.60;;;0.60;;
15451;SDS011;7827;53.594;9.938;2023-07-31T11:43:47;0.50;;;0.50;;
15451;SDS011;7827;53.594;9.938;2023-07-31T11:46:15;0.60;;;0.60;;
15451;SDS011;7827;53.594;9.938;2023-07-31T11:48:45;0.60;;;0.60;;
15451;SDS011;7827;53.594;9.938;2023-07-31T11:51:14;0.60;;;0.60;;
15451;SDS011;7827;53.594;9.938;2023-07-31T11:53:45;0.57;;;0.57;;
15451;SDS011;7827;53.594;9.938;2023-07-31T11:56:19;0.60;;;0.60;;
15451;SDS011;7827;53.594;9.938;2023-07-31T11:58:51;0.60;;;0.60;;
15451;SDS011;7827;53.594;9.938;2023-07-31T12:01:24;0.50;;;0.50;;
15451;SDS011;7827;53.594;9.938;2023-07-31T12:03:55;0.50;;;0.50;;
15451;SDS011;7827;53.594;9.938;2023-07-31T12:06:32;0.60;;;0.60;;
15451;SDS011;7827;53.594;9.938;2023-07-31T12:09:04;0.60;;;0.60;;
15451;SDS011;7827;53.594;9.938;2023-07-31T12:11:42;0.60;;;0.60;;
15451;SDS011;7827;53.594;9.938;2023-07-31T12:14:19;0.65;;;0.65;;
15451;SDS011;7827;53.594;9.938;2023-07-31T12:16:52;0.60;;;0.60;;
15451;SDS011;7827;53.594;9.938;2023-07-31T12:19:22;0.60;;;0.60;;
15451;SDS011;7827;53.594;9.938;2023-07-31T12:21:54;0.60;;;0.60;;
15451;SDS011;7827;53.594;9.938;2023-07-31T12:24:28;0.60;;;0.60;;
15451;SDS011;7827;53.594;9.938;2023-07-31T12:26:57;0.60;;;0.60;;
15451;SDS011;7827;53.594;9.938;2023-07-31T12:29:33;0.60;;;0.60;;
15451;SDS011;7827;53.594;9.938;2023-07-31T12:32:18;0.60;;;0.60;;
15451;SDS011;7827;53.594;9.938;2023-07-31T12:34:48;0.50;;;0.50;;
15451;SDS011;7827;53.594;9.938;2023-07-31T12:37:16;0.60;;;0.60;;
15451;SDS011;7827;53.594;9.938;2023-07-31T12:39:46;0.60;;;0.60;;
15451;SDS011;7827;53.594;9.938;2023-07-31T12:42:17;0.60;;;0.60;;
15451;SDS011;7827;53.594;9.938;2023-07-31T12:44:45;0.57;;;0.57;;
15451;SDS011;7827;53.594;9.938;2023-07-31T12:47:14;0.60;;;0.60;;
15451;SDS011;7827;53.594;9.938;2023-07-31T12:49:42;0.60;;;0.60;;
15451;SDS011;7827;53.594;9.938;2023-07-31T12:52:10;0.60;;;0.60;;
15451;SDS011;7827;53.594;9.938;2023-07-31T12:54:39;0.60;;;0.60;;
15451;SDS011;7827;53.594;9.938;2023-07-31T12:57:08;0.60;;;0.60;;
15451;SDS011;7827;53.594;9.938;2023-07-31T12:59:37;0.60;;;0.60;;
15451;SDS011;7827;53.594;9.938;2023-07-31T13:02:05;0.50;;;0.50;;
15451;SDS011;7827;53.594;9.938;2023-07-31T13:04:33;0.60;;;0.60;;
15451;SDS011;7827;53.594;9.938;2023-07-31T13:07:02;0.52;;;0.52;;
15451;SDS011;7827;53.594;9.938;2023-07-31T13:09:31;0.60;;;0.60;;
15451;SDS011;7827;53.594;9.938;2023-07-31T13:11:59;0.50;;;0.50;;
15451;SDS011;7827;53.594;9.938;2023-07-31T13:14:29;0.50;;;0.50;;
15451;SDS011;7827;53.594;9.938;2023-07-31T13:16:57;0.50;;;0.50;;
15451;SDS011;7827;53.594;9.938;2023-07-31T13:19:26;0.50;;;0.50;;
15451;SDS011;7827;53.594;9.938;2023-07-31T13:21:54;0.50;;;0.50;;
15451;SDS011;7827;53.594;9.938;2023-07-31T13:24:22;0.50;;;0.50;;
15451;SDS011;7827;53.594;9.938;2023-07-31T13:26:50;0.50;;;0.50;;
15451;SDS011;7827;53.594;9.938;2023-07-31T13:29:19;0.50;;;0.50;;
15451;SDS011;7827;53.594;9.938;2023-07-31T13:31:49;0.50;;;0.50;;
15451;SDS011;7827;53.594;9.938;2023-07-31T13:34:17;0.60;;;0.60;;
15451;SDS011;7827;53.594;9.938;2023-07-31T13:36:46;0.50;;;0.50;;
15451;SDS011;7827;53.594;9.938;2023-07-31T13:39:14;0.50;;;0.50;;
15451;SDS011;7827;53.594;9.938;2023-07-31T13:41:42;0.50;;;0.50;;
15451;SDS011;7827;53.594;9.938;2023-07-31T13:44:11;0.50;;;0.50;;
15451;SDS011;7827;53.594;9.938;2023-07-31T13:46:39;0.50;;;0.50;;
15451;SDS011;7827;53.594;9.938;2023-07-31T13:49:09;0.57;;;0.57;;
15451;SDS011;7827;53.594;9.938;2023-07-31T13:51:38;0.47;;;0.47;;
15451;SDS011;7827;53.594;9.938;2023-07-31T13:54:06;0.50;;;0.50;;
15451;SDS011;7827;53.594;9.938;2023-07-31T13:56:35;0.50;;;0.50;;
15451;SDS011;7827;53.594;9.938;2023-07-31T13:59:03;0.50;;;0.50;;
15451;SDS011;7827;53.594;9.938;2023-07-31T14:01:32;0.50;;;0.50;;
15451;SDS011;7827;53.594;9.938;2023-07-31T14:04:00;0.50;;;0.50;;
15451;SDS011;7827;53.594;9.938;2023-07-31T14:06:30;0.50;;;0.50;;
15451;SDS011;7827;53.594;9.938;2023-07-31T14:08:58;0.50;;;0.50;;
15451;SDS011;7827;53.594;9.938;2023-07-31T14:11:27;0.50;;;0.50;;
15451;SDS011;7827;53.594;9.938;2023-07-31T14:13:55;0.50;;;0.50;;
15451;SDS011;7827;53.594;9.938;2023-07-31T14:16:23;0.50;;;0.50;;
15451;SDS011;7827;53.594;9.938;2023-07-31T14:18:52;0.55;;;0.55;;
15451;SDS011;7827;53.594;9.938;2023-07-31T14:21:21;0.50;;;0.50;;
15451;SDS011;7827;53.594;9.938;2023-07-31T14:23:51;0.60;;;0.60;;
15451;SDS011;7827;53.594;9.938;2023-07-31T14:26:19;0.50;;;0.50;;
15451;SDS011;7827;53.594;9.938;2023-07-31T14:28:48;0.40;;;0.40;;
15451;SDS011;7827;53.594;9.938;2023-07-31T14:31:16;0.50;;;0.50;;
15451;SDS011;7827;53.594;9.938;2023-07-31T14:33:44;0.60;;;0.60;;
15451;SDS011;7827;53.594;9.938;2023-07-31T14:36:13;0.50;;;0.50;;
15451;SDS011;7827;53.594;9.938;2023-07-31T14:38:41;0.50;;;0.50;;
15451;SDS011;7827;53.594;9.938;2023-07-31T14:41:11;0.40;;;0.40;;
15451;SDS011;7827;53.594;9.938;2023-07-31T14:43:39;0.50;;;0.50;;
15451;SDS011;7827;53.594;9.938;2023-07-31T14:46:07;0.50;;;0.50;;
15451;SDS011;7827;53.594;9.938;2023-07-31T14:48:36;0.50;;;0.50;;
15451;SDS011;7827;53.594;9.938;2023-07-31T14:51:04;0.50;;;0.50;;
15451;SDS011;7827;53.594;9.938;2023-07-31T14:53:33;0.60;;;0.60;;
15451;SDS011;7827;53.594;9.938;2023-07-31T14:56:01;0.50;;;0.50;;
15451;SDS011;7827;53.594;9.938;2023-07-31T14:58:31;0.50;;;0.50;;
15451;SDS011;7827;53.594;9.938;2023-07-31T15:00:59;0.50;;;0.50;;
15451;SDS011;7827;53.594;9.938;2023-07-31T15:03:27;0.50;;;0.50;;
15451;SDS011;7827;53.594;9.938;2023-07-31T15:05:56;0.50;;;0.50;;
15451;SDS011;7827;53.594;9.938;2023-07-31T15:08:24;0.40;;;0.40;;
15451;SDS011;7827;53.594;9.938;2023-07-31T15:10:54;0.52;;;0.52;;
15451;SDS011;7827;53.594;9.938;2023-07-31T15:13:24;0.50;;;0.50;;
15451;SDS011;7827;53.594;9.938;2023-07-31T15:15:54;0.52;;;0.52;;
15451;SDS011;7827;53.594;9.938;2023-07-31T15:18:24;0.50;;;0.50;;